WetterOnline ( http://www.wetteronline.de )

Wetter aktuell Schwerin

Aktuelles Wetter: Schwerin (68m)

6-stündlich | Neueste Meldungen
Ortszeit Temperatur Wetter
Sa, 23.02. 19:00 3.8° C wolkig
Sa, 23.02. 13:00 4.7° C wolkig
Sa, 23.02. 7:00 -1.5° C -
Sa, 23.02. 1:00 0.4° C bedeckt
Fr, 22.02. 19:00 2.3° C wolkig
Fr, 22.02. 13:00 4.7° C wolkenlos
Fr, 22.02. 7:00 2.4° C bedeckt
Fr, 22.02. 1:00 7.3° C bedeckt
Ortszeit Temperatur Wetter
Sa, 23.02. 21:30 2.1° C wolkig
Sa, 23.02. 21:20 2.1° C wolkig
Sa, 23.02. 21:10 2.2° C wolkig
Sa, 23.02. 21:00 2.3° C wolkig
Sa, 23.02. 20:50 2.3° C wolkig
Sa, 23.02. 20:40 2.5° C wolkig
Sa, 23.02. 20:30 2.6° C wolkig
Sa, 23.02. 20:00 3.2° C -
Sa, 23.02. 19:30 3.5° C wolkig
Sa, 23.02. 19:00 3.8° C wolkig
Sa, 23.02. 18:30 4.4° C -
Ortszeit Relative Feuchte Sichtweite
Sa, 23.02. 19:00 43% 35 km
Sa, 23.02. 13:00 39% 30 km
Sa, 23.02. 7:00 66% 40 km
Sa, 23.02. 1:00 62% 50 km
Fr, 22.02. 19:00 67% 35 km
Fr, 22.02. 13:00 54% 35 km
Fr, 22.02. 7:00 84% 40 km
Fr, 22.02. 1:00 97% 3.1 km
Ortszeit Relative Feuchte Sichtweite
Sa, 23.02. 21:30 49% 30 km
Sa, 23.02. 21:20 49% -
Sa, 23.02. 21:10 48% -
Sa, 23.02. 21:00 49% 30 km
Sa, 23.02. 20:50 49% -
Sa, 23.02. 20:40 48% -
Sa, 23.02. 20:30 49% 30 km
Sa, 23.02. 20:00 46% 30 km
Sa, 23.02. 19:30 45% 30 km
Sa, 23.02. 19:00 43% 35 km
Sa, 23.02. 18:30 40% 35 km
Ortszeit Niederschlagsmenge Niederschlagsart
Sa, 23.02. 19:00 0.0 l/m2 in 12 Std. -
Sa, 23.02. 13:00 0.0 l/m2 in 6 Std. -
Sa, 23.02. 7:00 0.0 l/m2 in 12 Std. -
Sa, 23.02. 1:00 0.0 l/m2 in 6 Std. -
Fr, 22.02. 19:00 0.0 l/m2 in 12 Std. -
Fr, 22.02. 13:00 0.0 l/m2 in 6 Std. -
Fr, 22.02. 7:00 0.5 l/m2 in 12 Std. Regen
Fr, 22.02. 1:00 0.2 l/m2 in 6 Std. Regen
Ortszeit Niederschlagsmenge Niederschlagsart
Sa, 23.02. 21:30 0.0 l/m2 in 1 Std. -
Sa, 23.02. 21:20 keine Meldung -
Sa, 23.02. 21:10 keine Meldung -
Sa, 23.02. 21:00 0.0 l/m2 in 1 Std. -
Sa, 23.02. 20:50 keine Meldung -
Sa, 23.02. 20:40 keine Meldung -
Sa, 23.02. 20:30 0.0 l/m2 in 1 Std. -
Sa, 23.02. 20:00 0.0 l/m2 in 1 Std. -
Sa, 23.02. 19:30 0.0 l/m2 in 1 Std. -
Sa, 23.02. 19:00 0.0 l/m2 in 1 Std. -
Sa, 23.02. 18:30 0.0 l/m2 in 1 Std. -
Ortszeit Stärke Spitze Richtung
km/h Bft. km/h Grad Sektor
Sa, 23.02. 19:00 6 1 22 160° S
Sa, 23.02. 13:00 7 2 28 190° S
Sa, 23.02. 7:00 7 2 24 160° S
Sa, 23.02. 1:00 9 2 22 140° SO
Fr, 22.02. 19:00 7 2 25 110° O
Fr, 22.02. 13:00 14 3 43 110° O
Fr, 22.02. 7:00 20 4 33 90° O
Fr, 22.02. 1:00 17 3 33 340° N
Ortszeit Stärke Spitze Richtung
km/h Bft. km/h Grad Sektor
Sa, 23.02. 21:30 7 2 14 200° S
Sa, 23.02. 21:20 7 2 - 200° S
Sa, 23.02. 21:10 7 2 - 190° S
Sa, 23.02. 21:00 7 2 18 190° S
Sa, 23.02. 20:50 7 2 - 190° S
Sa, 23.02. 20:40 7 2 - 180° S
Sa, 23.02. 20:30 6 1 17 180° S
Sa, 23.02. 20:00 7 2 14 170° S
Sa, 23.02. 19:30 7 2 15 160° S
Sa, 23.02. 19:00 6 1 17 160° S
Sa, 23.02. 18:30 7 2 14 150° SO
Ortszeit Untergrenze Bedeckung Gattung
total tief tief mittel hoch
Sa, 23.02. 19:00 9000 m 8/8 0/8 - - -
Sa, 23.02. 13:00 6000 m 8/8 8/8 - - -
Sa, 23.02. 7:00 - - - - - -
Sa, 23.02. 1:00 2400 m 8/8 8/8 - - -
Fr, 22.02. 19:00 10500 m 7/8 0/8 - - -
Fr, 22.02. 13:00 - 0/8 0/8 - - -
Fr, 22.02. 7:00 360 m 8/8 8/8 - - -
Fr, 22.02. 1:00 90 m 8/8 8/8 - - -
Ortszeit Bedeckungsgrad in Achtel und Wolkenuntergrenze
Sa, 23.02. 21:30 8(9000m) 8(10500m) 8(12000m)
Sa, 23.02. 21:20 8(9000m) 8(10500m) 8(12000m)
Sa, 23.02. 21:10 8(9000m) 8(10500m) 8(12000m)
Sa, 23.02. 21:00 8(9000m) 8(12000m)
Sa, 23.02. 20:50 8(9000m) 8(12000m)
Sa, 23.02. 20:40 8(10500m) 8(12000m)
Sa, 23.02. 20:30 8(9000m) 8(12000m)
Sa, 23.02. 20:00 -
Sa, 23.02. 19:30 8(10500m) 8(10500m) 8(12000m)
Sa, 23.02. 19:00 8(9000m) 8(10500m) 8(12000m)
Sa, 23.02. 18:30 -
Ortszeit Luftdruck NN (hPa) Tendenz (hPa in 3 Std.)
Sa, 23.02. 19:00 1041 0,0
Sa, 23.02. 13:00 1042 - 1,2
Sa, 23.02. 7:00 1044 0,0
Sa, 23.02. 1:00 1045 + 1,2
Fr, 22.02. 19:00 1043 + 1,7
Fr, 22.02. 13:00 1040 + 1,7
Fr, 22.02. 7:00 1034 + 4,0
Fr, 22.02. 1:00 1027 + 2,3
Ortszeit Luftdruck NN (hPa) Tendenz (hPa in 3 Std.)
Sa, 23.02. 21:30 1041 - 0,5
Sa, 23.02. 21:20 1041 keine Meldung
Sa, 23.02. 21:10 1041 keine Meldung
Sa, 23.02. 21:00 1041 - 0,5
Sa, 23.02. 20:50 1041 keine Meldung
Sa, 23.02. 20:40 1041 keine Meldung
Sa, 23.02. 20:30 1041 - 0,1
Sa, 23.02. 20:00 1041 + 0,1
Sa, 23.02. 19:30 1041 - 0,2
Sa, 23.02. 19:00 1041 0,0
Sa, 23.02. 18:30 1041 - 0,4
Ortszeit Schneehöhe (cm)
Sa, 23.02. 19:00 0
Sa, 23.02. 13:00 0
Sa, 23.02. 7:00 0
Sa, 23.02. 1:00 0
Fr, 22.02. 19:00 0
Fr, 22.02. 13:00 0
Fr, 22.02. 7:00 0
Fr, 22.02. 1:00 0
Ortszeit Schneehöhe (cm)
Sa, 23.02. 21:30 0
Sa, 23.02. 21:20 0
Sa, 23.02. 21:10 0
Sa, 23.02. 21:00 0
Sa, 23.02. 20:50 0
Sa, 23.02. 20:40 0
Sa, 23.02. 20:30 0
Sa, 23.02. 20:00 0
Sa, 23.02. 19:30 0
Sa, 23.02. 19:00 0
Sa, 23.02. 18:30 0
Link zu dieser Seite / Seite empfehlen

Das Wetter in ...